Terminal Aerodrome Forecast
Issued by NWS

Home | Current Version | Previous Version | Text Only | Print | Product List | Glossary On
Versions: 1 2 3 4 5 6 7 8 9 10 11 12 13 14 15 16 17 18 19 20 21 22 23 24 25 26 27 28 29 30 31 32 33 34 35 36 37
998
FTUS41 KOKX 241323 AAB
TAFTEB
TAF AMD
KTEB 241323Z 2413/2512 06005KT P6SM BKN100
     FM241500 05007KT P6SM SCT035 OVC060
     FM242100 10008KT P6SM FEW035 OVC060
     FM250300 09008KT P6SM BKN020 OVC040
     FM250800 07010KT 6SM -RA BR BKN007 OVC020=

USA.gov is the U.S. government's official web portal to all federal, state and local government web resources and services.